Time;durP1;ratioP1;P1;durP2;ratioP2;P2;SDS_P1;SDS_P2;PMS_P1;PMS_P2;Temp;Humidity;BMP_temperature;BMP_pressure;BME280_temperature;BME280_humidity;BME280_pressure;Samples;Min_cycle;Max_cycle;Signal;HPM_P1;HPM_P2
2022/02/11 00:01:19;;;;;;;74.53;35.65;;;2.80;99.90;;;;;;5075870;28;20056;-96
2022/02/11 00:08:52;;;;;;;102.53;44.25;;;2.80;99.90;;;;;;5075956;28;20040;-96
2022/02/11 00:11:21;;;;;;;98.38;43.17;;;2.80;99.90;;;;;;5074376;28;20020;-96
2022/02/11 00:13:47;;;;;;;80.28;36.20;;;2.80;99.90;;;;;;5074056;28;20060;-96
2022/02/11 00:16:13;;;;;;;72.80;35.05;;;2.80;99.90;;;;;;5074447;28;20021;-96
2022/02/11 00:18:39;;;;;;;65.90;33.50;;;2.90;99.90;;;;;;5074288;28;20025;-96
2022/02/11 00:21:05;;;;;;;59.22;30.20;;;2.90;99.90;;;;;;5074190;28;20113;-96
2022/02/11 00:23:32;;;;;;;61.65;30.98;;;2.90;99.90;;;;;;5074164;28;20024;-96
2022/02/11 00:26:01;;;;;;;59.97;29.83;;;2.90;99.90;;;;;;5075000;28;20383;-96
2022/02/11 00:30:13;;;;;;;61.92;30.90;;;2.90;99.90;;;;;;5073851;28;20031;-96
2022/02/11 00:33:59;;;;;;;60.15;30.65;;;2.90;99.90;;;;;;5075504;28;20070;-95
2022/02/11 00:36:33;;;;;;;61.30;31.38;;;3.00;99.90;;;;;;5073838;28;20119;-96
2022/02/11 01:06:21;;;;;;;54.83;26.17;;;3.10;99.90;;;;;;5074997;28;20013;-95
2022/02/11 01:08:46;;;;;;;63.28;30.02;;;3.10;99.90;;;;;;5073344;28;20028;-96
2022/02/11 01:11:19;;;;;;;58.00;28.58;;;3.10;99.90;;;;;;5073502;28;20021;-96
2022/02/11 01:13:45;;;;;;;51.17;28.10;;;3.20;99.90;;;;;;5073678;28;20055;-96
2022/02/11 01:16:17;;;;;;;47.78;25.52;;;3.20;99.90;;;;;;5073815;28;20028;-96
2022/02/11 01:18:49;;;;;;;48.72;26.35;;;3.20;99.90;;;;;;5074364;28;20032;-96
2022/02/11 01:21:22;;;;;;;48.47;24.83;;;3.20;99.90;;;;;;5073959;28;20052;-96
2022/02/11 01:23:58;;;;;;;46.65;24.38;;;3.20;99.90;;;;;;5075295;28;20362;-96
2022/02/11 01:26:45;;;;;;;51.40;25.70;;;3.30;99.90;;;;;;5073484;28;20021;-96
2022/02/11 01:32:03;;;;;;;56.60;32.00;;;3.30;99.90;;;;;;5074772;28;20020;-96
2022/02/11 01:37:33;;;;;;;84.53;46.50;;;3.20;99.90;;;;;;5074844;28;20089;-96
2022/02/11 01:43:48;;;;;;;138.60;68.07;;;3.20;99.90;;;;;;5074487;28;20158;-96
2022/02/11 01:48:44;;;;;;;97.57;51.83;;;3.20;99.90;;;;;;5074187;28;20016;-96
2022/02/11 01:53:43;;;;;;;85.50;46.05;;;3.20;99.90;;;;;;5074115;28;20117;-96
2022/02/11 02:10:17;;;;;;;80.70;39.58;;;3.00;99.90;;;;;;5074574;28;20035;-96
2022/02/11 02:18:48;;;;;;;67.97;33.25;;;3.00;99.90;;;;;;5074000;28;20032;-95
2022/02/11 02:26:12;;;;;;;61.08;30.65;;;3.00;99.90;;;;;;5074087;28;20086;-95
2022/02/11 02:58:17;;;;;;;81.57;41.13;;;2.90;99.90;;;;;;5077695;28;20452;-96
2022/02/11 04:22:26;;;;;;;56.38;27.95;;;3.00;99.90;;;;;;5075002;28;20047;-96
2022/02/11 04:57:01;;;;;;;46.88;25.70;;;3.10;99.90;;;;;;5074880;28;20059;-95
2022/02/11 04:59:39;;;;;;;47.33;27.13;;;3.10;99.90;;;;;;5073586;28;20451;-96
2022/02/11 05:02:08;;;;;;;47.30;26.38;;;3.10;99.90;;;;;;5073219;28;20082;-95
2022/02/11 05:04:34;;;;;;;44.50;25.08;;;3.10;99.90;;;;;;5073453;28;20050;-95
2022/02/11 05:07:02;;;;;;;43.08;23.60;;;3.10;99.90;;;;;;5073609;28;20028;-88
2022/02/11 05:09:28;;;;;;;51.03;28.77;;;3.10;99.90;;;;;;5073640;28;20074;-88
2022/02/11 05:11:53;;;;;;;53.78;29.15;;;3.10;99.90;;;;;;5073411;28;20024;-88
2022/02/11 05:14:19;;;;;;;48.05;26.27;;;3.10;99.90;;;;;;5073352;28;20390;-87
2022/02/11 05:16:45;;;;;;;39.25;22.63;;;3.10;99.90;;;;;;5073793;28;20082;-88
2022/02/11 05:19:10;;;;;;;41.38;23.23;;;3.10;99.90;;;;;;5073158;28;20035;-89
2022/02/11 05:21:36;;;;;;;41.83;23.85;;;3.10;99.90;;;;;;5073261;28;20045;-89
2022/02/11 05:24:02;;;;;;;41.28;24.35;;;3.10;99.90;;;;;;5073236;28;20046;-89
2022/02/11 05:26:29;;;;;;;34.50;21.13;;;3.10;99.90;;;;;;5073747;28;20024;-89
2022/02/11 05:28:55;;;;;;;43.38;23.83;;;3.10;99.90;;;;;;5073185;28;20043;-89
2022/02/11 05:31:21;;;;;;;46.22;23.60;;;3.10;99.90;;;;;;5073473;28;20028;-89
2022/02/11 05:33:47;;;;;;;39.42;20.90;;;3.10;99.90;;;;;;5073191;28;20029;-89
2022/02/11 05:36:14;;;;;;;35.38;21.58;;;3.20;99.90;;;;;;5073161;28;20024;-89
2022/02/11 05:38:41;;;;;;;38.80;20.48;;;3.20;99.90;;;;;;5073123;28;20077;-89
2022/02/11 05:41:06;;;;;;;43.75;21.35;;;3.10;99.90;;;;;;5072911;28;20119;-89
2022/02/11 05:43:32;;;;;;;37.05;21.55;;;3.20;99.90;;;;;;5072340;28;20119;-90
2022/02/11 05:45:58;;;;;;;42.47;23.85;;;3.20;99.90;;;;;;5072785;28;20021;-90
2022/02/11 05:48:23;;;;;;;42.53;24.58;;;3.20;99.90;;;;;;5073125;28;20020;-89
2022/02/11 05:50:49;;;;;;;51.15;23.33;;;3.20;99.90;;;;;;5072837;28;20035;-89
2022/02/11 05:53:15;;;;;;;47.92;24.88;;;3.20;99.90;;;;;;5073085;28;20032;-88
2022/02/11 05:55:40;;;;;;;43.30;23.70;;;3.20;99.90;;;;;;5073020;28;20490;-87
2022/02/11 05:58:06;;;;;;;43.85;25.13;;;3.20;99.90;;;;;;5075076;28;20029;-87
2022/02/11 14:44:57;;;;;;;34.53;19.05;;;6.30;99.90;;;;;;5097285;28;20443;-96
2022/02/11 14:47:23;;;;;;;35.95;19.20;;;6.20;99.90;;;;;;5104305;28;20032;-96
2022/02/11 14:49:54;;;;;;;44.05;21.77;;;6.20;99.90;;;;;;5102734;28;20050;-96
2022/02/11 14:59:12;;;;;;;55.45;24.75;;;6.30;99.90;;;;;;5039232;28;20519;-96
2022/02/11 15:01:43;;;;;;;48.45;22.92;;;6.20;99.90;;;;;;5094507;28;20081;-96
2022/02/11 15:04:08;;;;;;;;;;;6.30;99.90;;;;;;5094456;28;20028;-96
2022/02/11 15:06:35;;;;;;;39.40;19.58;;;6.30;99.90;;;;;;5092011;28;19950;-96
2022/02/11 15:09:02;;;;;;;37.00;21.02;;;6.30;99.90;;;;;;5092772;28;20027;-96
2022/02/11 15:11:28;;;;;;;42.85;22.45;;;6.30;99.90;;;;;;5092487;28;20020;-96
2022/02/11 15:13:54;;;;;;;36.00;20.83;;;6.30;99.90;;;;;;5092398;28;20123;-96
2022/02/11 15:16:20;;;;;;;37.30;20.13;;;6.30;99.90;;;;;;5092645;28;20063;-96
2022/02/11 15:18:47;;;;;;;37.13;21.50;;;6.30;99.90;;;;;;5091089;28;20073;-94
2022/02/11 15:21:13;;;;;;;33.28;19.13;;;6.30;99.90;;;;;;5090047;28;20099;-95
2022/02/11 15:23:40;;;;;;;38.05;19.75;;;6.30;99.90;;;;;;5090097;28;20020;-94
2022/02/11 15:26:07;;;;;;;32.15;17.63;;;6.30;99.90;;;;;;5090074;28;20032;-95
2022/02/11 15:28:36;;;;;;;36.85;20.05;;;6.30;99.90;;;;;;5090159;28;20458;-91
2022/02/11 15:31:02;;;;;;;33.97;17.30;;;6.30;99.90;;;;;;5090606;28;20021;-93
2022/02/11 15:33:29;;;;;;;35.58;16.88;;;6.30;99.90;;;;;;5091132;28;20460;-92
2022/02/11 15:35:55;;;;;;;26.88;16.92;;;6.20;99.90;;;;;;5090039;28;20115;-93
2022/02/11 15:38:20;;;;;;;27.35;15.60;;;6.20;99.90;;;;;;5090092;28;20027;-92
2022/02/11 15:40:48;;;;;;;36.38;20.10;;;6.20;99.90;;;;;;5090295;28;20028;-92
2022/02/11 15:43:14;;;;;;;42.38;22.77;;;6.20;99.90;;;;;;5089922;28;20052;-93
2022/02/11 15:45:40;;;;;;;43.35;22.92;;;6.20;99.90;;;;;;5070469;28;20125;-93
2022/02/11 15:48:06;;;;;;;44.90;22.13;;;6.20;99.90;;;;;;5069184;28;20490;-92
2022/02/11 15:50:31;;;;;;;49.42;25.63;;;6.20;99.90;;;;;;5069392;28;20057;-93
2022/02/11 15:52:57;;;;;;;53.75;29.75;;;6.20;99.90;;;;;;5069382;28;20466;-93
2022/02/11 15:55:23;;;;;;;46.38;26.13;;;6.10;99.90;;;;;;5061476;28;20025;-92
2022/02/11 15:57:51;;;;;;;52.45;27.13;;;6.10;99.90;;;;;;5056110;28;20111;-92
2022/02/11 16:00:17;;;;;;;47.58;23.88;;;6.10;99.90;;;;;;5055824;28;20536;-93
2022/02/11 16:02:43;;;;;;;45.17;22.88;;;6.10;99.90;;;;;;5056049;28;20035;-94
2022/02/11 16:05:45;;;;;;;44.28;24.48;;;6.10;99.90;;;;;;5058548;28;20104;-96
2022/02/11 16:08:14;;;;;;;47.33;25.67;;;6.00;99.90;;;;;;5068318;28;20055;-96
2022/02/11 16:10:39;;;;;;;54.42;29.05;;;6.00;99.90;;;;;;5063563;28;20025;-96
2022/02/11 16:13:06;;;;;;;46.47;26.80;;;6.00;99.90;;;;;;5065474;28;20029;-96
2022/02/11 16:15:35;;;;;;;40.30;21.98;;;5.90;99.90;;;;;;5071741;28;20028;-96
2022/02/11 16:18:14;;;;;;;36.63;20.48;;;5.90;99.90;;;;;;5058957;28;20116;-96
2022/02/11 16:20:45;;;;;;;33.03;19.58;;;5.90;99.90;;;;;;5066690;28;20025;-96
2022/02/11 16:26:44;;;;;;;45.95;25.92;;;5.70;99.90;;;;;;5715015;23;20061;-96
2022/02/11 16:34:51;;;;;;;40.90;23.02;;;5.40;99.90;;;;;;5656730;23;20051;-96
2022/02/11 16:37:27;;;;;;;48.15;24.92;;;5.30;99.90;;;;;;4991657;28;20481;-96
2022/02/11 16:39:56;;;;;;;43.38;24.73;;;5.20;99.90;;;;;;4981415;28;20033;-96
2022/02/11 16:42:23;;;;;;;47.05;25.63;;;5.10;99.90;;;;;;4964203;28;20022;-92
2022/02/11 17:21:16;;;;;;;64.68;33.78;;;3.50;99.90;;;;;;6114958;23;21166;31
2022/02/11 17:23:42;;;;;;;46.03;25.40;;;3.60;99.90;;;;;;4957615;28;20058;-94
2022/02/11 17:26:08;;;;;;;42.63;23.70;;;3.70;99.90;;;;;;4975491;28;20027;-93
2022/02/11 17:28:34;;;;;;;60.40;30.00;;;3.90;99.90;;;;;;4975773;28;20018;-92
2022/02/11 17:30:59;;;;;;;57.45;29.13;;;4.00;99.90;;;;;;4975617;28;20050;-94
2022/02/11 17:33:25;;;;;;;54.03;28.10;;;4.10;99.90;;;;;;4975290;28;20027;-93
2022/02/11 17:35:51;;;;;;;52.60;27.40;;;4.20;99.90;;;;;;4975452;28;20039;-92
2022/02/11 17:38:17;;;;;;;49.13;26.65;;;4.20;99.90;;;;;;4975446;28;20033;-92
2022/02/11 17:40:43;;;;;;;48.90;25.20;;;4.20;99.90;;;;;;4975420;28;20034;-92
2022/02/11 17:43:10;;;;;;;52.35;26.90;;;4.30;99.90;;;;;;4974995;28;20027;-92
2022/02/11 17:45:37;;;;;;;51.47;27.17;;;4.30;99.90;;;;;;4975475;28;20027;-95
2022/02/11 17:48:03;;;;;;;55.97;28.92;;;4.30;99.90;;;;;;4975591;28;20341;-95
2022/02/11 17:50:31;;;;;;;59.85;30.30;;;4.30;99.90;;;;;;4975336;28;20030;-95
2022/02/11 17:52:56;;;;;;;59.90;30.88;;;4.30;99.90;;;;;;4974956;28;20027;-95
2022/02/11 17:55:27;;;;;;;73.50;38.85;;;4.30;99.90;;;;;;4974934;28;20488;-96
2022/02/11 17:57:53;;;;;;;58.20;28.48;;;4.30;99.90;;;;;;4974859;28;20030;-96
2022/02/11 18:00:19;;;;;;;45.80;23.40;;;4.40;99.90;;;;;;4974751;28;20031;-95
2022/02/11 18:02:45;;;;;;;39.28;21.60;;;4.50;99.90;;;;;;4958960;28;20038;-95
2022/02/11 18:05:12;;;;;;;34.47;18.63;;;4.50;99.90;;;;;;4974702;28;20130;-96
2022/02/11 18:07:41;;;;;;;33.13;17.90;;;4.60;99.90;;;;;;4974748;28;20027;-94
2022/02/11 18:10:08;;;;;;;31.10;17.65;;;4.60;99.90;;;;;;4958712;28;20409;-95
2022/02/11 18:12:34;;;;;;;29.58;15.93;;;4.60;99.90;;;;;;4958837;28;20389;-95
2022/02/11 18:15:00;;;;;;;28.90;16.92;;;4.70;99.90;;;;;;4974634;28;20029;-94
2022/02/11 18:17:29;;;;;;;29.08;16.27;;;4.60;99.90;;;;;;4958305;28;20026;-96
2022/02/11 18:19:56;;;;;;;26.05;15.05;;;4.70;99.90;;;;;;4974871;28;20029;-95
2022/02/11 18:22:21;;;;;;;28.33;15.85;;;4.70;99.90;;;;;;4971664;28;20130;-95
2022/02/11 18:24:47;;;;;;;27.95;16.13;;;4.60;99.90;;;;;;4955242;28;20562;-95
2022/02/11 18:27:13;;;;;;;27.80;15.40;;;4.60;99.90;;;;;;4955257;29;20034;-95
2022/02/11 18:29:38;;;;;;;28.67;15.50;;;4.50;99.90;;;;;;4955224;29;20046;-96
2022/02/11 18:32:05;;;;;;;24.58;13.77;;;4.50;99.90;;;;;;4955503;28;20023;-95
2022/02/11 18:43:52;;;;;;;22.88;12.88;;;4.40;99.90;;;;;;4969122;28;20454;-96
2022/02/11 18:46:41;;;;;;;23.25;12.65;;;4.40;99.90;;;;;;4973370;29;20062;-96
2022/02/11 18:49:11;;;;;;;19.87;10.80;;;4.40;99.90;;;;;;4972190;29;20027;-96
2022/02/11 18:51:47;;;;;;;22.05;11.35;;;4.40;99.90;;;;;;4952205;29;20043;-96
2022/02/11 18:54:28;;;;;;;;;;;4.40;99.90;;;;;;4937226;29;20566;-96
2022/02/11 18:56:55;;;;;;;17.85;9.75;;;4.30;99.90;;;;;;4921604;29;19906;-93
2022/02/11 19:02:05;;;;;;;15.23;9.88;;;4.30;99.90;;;;;;4935229;29;20106;-92
2022/02/11 19:04:31;;;;;;;18.45;10.00;;;4.30;99.90;;;;;;4918920;29;20023;-92
2022/02/11 19:06:57;;;;;;;20.95;12.80;;;4.40;99.90;;;;;;4918815;29;20024;-92
2022/02/11 19:09:24;;;;;;;25.98;14.40;;;4.30;99.90;;;;;;4918974;29;20032;-93
2022/02/11 19:11:50;;;;;;;48.30;27.30;;;4.30;99.90;;;;;;4919080;29;20052;-93
2022/02/11 19:14:16;;;;;;;51.75;28.65;;;4.30;99.90;;;;;;4918962;29;20035;-93
2022/02/11 19:16:43;;;;;;;50.17;26.17;;;4.20;99.90;;;;;;4919145;29;20043;-93
2022/02/11 19:19:11;;;;;;;30.48;16.02;;;4.20;99.90;;;;;;4918989;29;20023;-93
2022/02/11 19:21:37;;;;;;;22.27;13.10;;;4.20;99.90;;;;;;4918750;29;20123;-93
2022/02/11 19:24:03;;;;;;;20.92;12.43;;;4.20;99.90;;;;;;4919211;29;20036;-92
2022/02/11 19:26:29;;;;;;;20.27;11.43;;;4.20;99.90;;;;;;4918911;29;20027;-93
2022/02/11 19:28:56;;;;;;;19.25;10.50;;;4.10;99.90;;;;;;4933606;28;20032;-92
2022/02/11 19:31:23;;;;;;;20.30;12.00;;;4.10;99.90;;;;;;4957534;29;20028;-93
2022/02/11 19:33:48;;;;;;;18.75;10.73;;;4.10;99.90;;;;;;4958541;28;20023;-93
2022/02/11 19:36:15;;;;;;;17.55;10.07;;;4.10;99.90;;;;;;4958336;29;20031;-93
2022/02/11 19:38:42;;;;;;;18.45;9.90;;;4.10;99.90;;;;;;4958387;29;20027;-93
2022/02/11 19:41:07;;;;;;;20.08;11.02;;;4.10;99.90;;;;;;4958258;28;20058;-93
2022/02/11 19:43:33;;;;;;;16.20;9.27;;;4.00;99.90;;;;;;4958119;29;20046;-93
2022/02/11 19:45:59;;;;;;;19.83;10.35;;;4.00;99.90;;;;;;4958664;29;20053;-93
2022/02/11 19:48:25;;;;;;;16.27;9.32;;;4.00;99.90;;;;;;4958019;28;20434;-94
2022/02/11 19:50:51;;;;;;;15.48;9.57;;;3.90;99.90;;;;;;4958066;29;20019;-93
2022/02/11 19:53:17;;;;;;;13.23;8.10;;;3.90;99.90;;;;;;4958036;29;20061;-94
2022/02/11 19:55:43;;;;;;;16.55;9.65;;;3.90;99.90;;;;;;4958022;29;20516;-93
2022/02/11 19:58:09;;;;;;;15.32;8.88;;;3.80;99.90;;;;;;4957695;29;20059;-93
2022/02/11 20:00:36;;;;;;;13.90;8.90;;;3.80;99.90;;;;;;4957294;29;20031;-93
2022/02/11 20:03:01;;;;;;;14.70;8.32;;;3.90;99.90;;;;;;4957579;29;20359;-93
2022/02/11 20:05:27;;;;;;;15.25;9.38;;;4.00;99.90;;;;;;4957967;29;20023;-93
2022/02/11 20:07:54;;;;;;;16.98;9.52;;;4.00;99.90;;;;;;4957486;29;20386;-93
2022/02/11 20:10:21;;;;;;;15.02;9.27;;;3.90;99.90;;;;;;4957451;29;20106;-93
2022/02/11 20:12:48;;;;;;;17.23;9.13;;;3.90;99.90;;;;;;4957519;29;20034;-94
2022/02/11 20:15:15;;;;;;;14.98;8.30;;;4.00;99.90;;;;;;4957466;29;20027;-93
2022/02/11 20:17:42;;;;;;;15.85;8.40;;;4.00;99.90;;;;;;4959090;28;20019;-93
2022/02/11 20:20:08;;;;;;;15.88;8.88;;;4.00;99.90;;;;;;4959288;28;20119;-93
2022/02/11 20:22:42;;;;;;;14.85;8.85;;;4.00;99.90;;;;;;4957603;28;20058;-93
2022/02/11 20:25:09;;;;;;;14.63;8.35;;;4.00;99.90;;;;;;4957485;28;20043;-94
2022/02/11 20:27:36;;;;;;;13.50;8.52;;;4.00;99.90;;;;;;4958332;29;20030;-93
2022/02/11 20:30:03;;;;;;;14.65;9.00;;;4.00;99.90;;;;;;4957331;28;20028;-93
2022/02/11 20:32:31;;;;;;;13.35;7.95;;;4.10;99.90;;;;;;4957366;29;20057;-94
2022/02/11 20:34:57;;;;;;;19.40;8.73;;;4.00;99.90;;;;;;4957045;29;20031;-92
2022/02/11 20:37:22;;;;;;;13.85;8.10;;;4.00;99.90;;;;;;4957017;28;20023;-93
2022/02/11 20:39:48;;;;;;;17.33;9.48;;;4.00;99.90;;;;;;4956933;29;20028;-93
2022/02/11 20:42:14;;;;;;;19.88;9.77;;;4.00;99.90;;;;;;4956784;28;20055;-93
2022/02/11 20:44:40;;;;;;;16.83;9.43;;;3.90;99.90;;;;;;4956936;29;20035;-94
2022/02/11 20:47:06;;;;;;;19.90;10.18;;;3.90;99.90;;;;;;4956956;29;20390;-93
2022/02/11 20:49:34;;;;;;;16.70;9.00;;;3.90;99.90;;;;;;4956856;29;20023;-93
2022/02/11 20:52:00;;;;;;;19.83;9.82;;;3.90;99.90;;;;;;4957136;29;20078;-93
2022/02/11 20:54:26;;;;;;;22.30;8.73;;;3.90;99.90;;;;;;4956757;29;20504;-93
2022/02/11 20:56:54;;;;;;;12.48;7.50;;;3.90;99.90;;;;;;4956719;28;20122;-93
2022/02/11 20:59:22;;;;;;;9.20;6.20;;;3.90;99.90;;;;;;4956566;29;20074;-93
2022/02/11 21:01:48;;;;;;;12.65;7.18;;;3.90;99.90;;;;;;4956884;29;20159;-93
2022/02/11 21:04:14;;;;;;;16.42;7.50;;;3.90;99.90;;;;;;4956478;28;20114;-93
2022/02/11 21:09:25;;;;;;;15.85;7.53;;;3.70;99.90;;;;;;4958054;29;20512;-93
2022/02/11 21:11:51;;;;;;;11.77;7.15;;;3.70;99.90;;;;;;4956573;29;20028;-93
2022/02/11 21:14:17;;;;;;;10.80;7.00;;;3.60;99.90;;;;;;4956685;29;20059;-93
2022/02/11 21:16:43;;;;;;;8.52;6.10;;;3.60;99.90;;;;;;4956558;29;20027;-93
2022/02/11 21:19:09;;;;;;;7.93;5.60;;;3.60;99.90;;;;;;4956426;28;20023;-93
2022/02/11 21:21:35;;;;;;;9.20;5.80;;;3.60;99.90;;;;;;4956598;28;20028;-93
2022/02/11 21:24:01;;;;;;;10.73;6.15;;;3.50;99.90;;;;;;4959418;28;20544;-93
2022/02/11 21:26:27;;;;;;;10.60;5.72;;;3.60;99.90;;;;;;4959229;28;20034;-93
2022/02/11 21:28:53;;;;;;;9.00;6.00;;;3.60;99.90;;;;;;4959437;28;20030;-93
2022/02/11 21:31:20;;;;;;;8.57;5.78;;;3.60;99.90;;;;;;4959598;28;20077;-93
2022/02/11 21:33:46;;;;;;;9.23;6.32;;;3.60;99.90;;;;;;4959457;28;20034;-93
2022/02/11 21:36:11;;;;;;;11.00;6.28;;;3.60;99.90;;;;;;4959627;28;20027;-93
2022/02/11 21:38:37;;;;;;;13.18;8.20;;;3.60;99.90;;;;;;4959288;28;20389;-93
2022/02/11 21:41:04;;;;;;;10.68;6.93;;;3.70;99.90;;;;;;4959105;28;20035;-93
2022/02/11 21:43:30;;;;;;;11.77;7.20;;;3.70;99.90;;;;;;4959221;28;20039;-93
2022/02/11 21:45:56;;;;;;;11.23;7.50;;;3.70;99.90;;;;;;4959016;28;20027;-94
2022/02/11 21:48:22;;;;;;;11.25;7.10;;;3.70;99.90;;;;;;4959025;28;20046;-93
2022/02/11 21:50:49;;;;;;;12.05;6.90;;;3.70;99.90;;;;;;4958913;28;20050;-93
2022/02/11 21:53:17;;;;;;;11.13;6.82;;;3.70;99.90;;;;;;4958667;28;20022;-93
2022/02/11 21:55:53;;;;;;;13.63;7.80;;;3.70;99.90;;;;;;4958936;28;20031;-93
2022/02/11 21:58:19;;;;;;;12.18;7.55;;;3.70;99.90;;;;;;4959017;28;20081;-93
2022/02/11 22:00:46;;;;;;;10.25;7.13;;;3.70;99.90;;;;;;4959209;28;20031;-93
2022/02/11 22:03:12;;;;;;;21.92;12.32;;;3.70;99.90;;;;;;4958711;28;20049;-93
2022/02/11 22:05:38;;;;;;;29.13;14.73;;;3.70;99.90;;;;;;4958688;28;20541;-93
2022/02/11 22:08:05;;;;;;;34.17;18.40;;;3.60;99.90;;;;;;4975358;28;20484;-93
2022/02/11 22:10:31;;;;;;;39.05;17.77;;;3.60;99.90;;;;;;4958661;28;20023;-93
2022/02/11 22:12:57;;;;;;;31.13;17.58;;;3.50;99.90;;;;;;4958850;28;20022;-93
2022/02/11 22:15:22;;;;;;;37.92;20.08;;;3.60;99.90;;;;;;4975206;28;20073;-93
2022/02/11 22:17:48;;;;;;;33.50;18.00;;;3.50;99.90;;;;;;4974526;28;20037;-93
2022/02/11 22:20:14;;;;;;;36.67;21.38;;;3.60;99.90;;;;;;4967310;28;20042;-93
2022/02/11 22:22:43;;;;;;;36.15;21.20;;;3.50;99.90;;;;;;4958483;28;20050;-93
2022/02/11 22:25:10;;;;;;;39.58;22.40;;;3.50;99.90;;;;;;4958765;28;20035;-93
2022/02/11 22:27:36;;;;;;;34.05;20.67;;;3.60;99.90;;;;;;4958986;28;20062;-93
2022/02/11 22:30:02;;;;;;;38.65;21.80;;;3.60;99.90;;;;;;4958737;28;20050;-93
2022/02/11 22:32:28;;;;;;;41.53;23.25;;;3.50;99.90;;;;;;4958571;28;20015;-93
2022/02/11 22:34:54;;;;;;;44.63;24.23;;;3.50;99.90;;;;;;4958614;28;20026;-93
2022/02/11 22:37:20;;;;;;;44.58;23.48;;;3.50;99.90;;;;;;4958549;28;20113;-93
2022/02/11 22:39:46;;;;;;;47.60;25.10;;;3.50;99.90;;;;;;4958282;28;20448;-93
2022/02/11 22:42:14;;;;;;;45.72;24.52;;;3.40;99.90;;;;;;4958652;28;20065;-94
2022/02/11 22:44:40;;;;;;;52.00;26.83;;;3.40;99.90;;;;;;4958342;28;20027;-94
2022/02/11 22:47:07;;;;;;;50.88;26.17;;;3.40;99.90;;;;;;4958134;28;20026;-93
2022/02/11 22:55:03;;;;;;;45.95;24.13;;;3.40;99.90;;;;;;4975749;28;20561;-94
2022/02/11 22:57:29;;;;;;;47.00;24.77;;;3.30;99.90;;;;;;4958269;28;20038;-93
2022/02/11 22:59:54;;;;;;;40.00;22.25;;;3.30;99.90;;;;;;4958462;28;20026;-94
2022/02/11 23:02:20;;;;;;;36.75;20.85;;;3.30;99.90;;;;;;4958086;28;20507;-94
2022/02/11 23:07:30;;;;;;;57.40;28.65;;;3.20;99.90;;;;;;4979399;28;20034;-93
2022/02/11 23:09:56;;;;;;;54.33;29.83;;;3.20;99.90;;;;;;4962050;28;20031;-94
2022/02/11 23:12:21;;;;;;;64.43;32.92;;;3.30;99.90;;;;;;4961855;28;20027;-94
2022/02/11 23:14:47;;;;;;;78.75;37.97;;;3.20;99.90;;;;;;4961885;28;20082;-93
2022/02/11 23:17:13;;;;;;;96.68;49.42;;;3.30;99.90;;;;;;4961801;28;20041;-94
2022/02/11 23:19:39;;;;;;;94.75;50.35;;;3.30;99.90;;;;;;4978035;28;20031;-94
2022/02/11 23:22:05;;;;;;;85.47;44.30;;;3.30;99.90;;;;;;4961628;28;20050;-94
2022/02/11 23:24:31;;;;;;;80.85;42.42;;;3.30;99.90;;;;;;4961409;28;20035;-93
2022/02/11 23:27:04;;;;;;;95.78;51.30;;;3.30;99.90;;;;;;4961817;28;20484;-93
2022/02/11 23:29:30;;;;;;;86.70;46.08;;;3.30;99.90;;;;;;4961809;28;20496;-93
2022/02/11 23:31:56;;;;;;;63.92;34.50;;;3.30;99.90;;;;;;4961725;28;20030;-93
2022/02/11 23:34:22;;;;;;;37.63;19.60;;;3.30;99.90;;;;;;4961551;28;20023;-93
2022/02/11 23:36:47;;;;;;;22.25;13.05;;;3.20;99.90;;;;;;4961447;28;20031;-93
2022/02/11 23:39:13;;;;;;;18.00;9.73;;;3.30;99.90;;;;;;4961327;28;20354;-93
2022/02/11 23:41:39;;;;;;;14.80;9.43;;;3.20;99.90;;;;;;4961422;28;20058;-94
2022/02/11 23:44:05;;;;;;;13.85;8.50;;;3.20;99.90;;;;;;4961642;28;20022;-94
2022/02/11 23:46:31;;;;;;;13.90;7.78;;;3.20;99.90;;;;;;4961322;28;20022;-94
2022/02/11 23:48:58;;;;;;;12.63;7.30;;;3.20;99.90;;;;;;4961405;28;20058;-94
2022/02/11 23:51:23;;;;;;;15.52;7.95;;;3.20;99.90;;;;;;4961288;28;20058;-93
2022/02/11 23:53:49;;;;;;;14.68;8.23;;;3.20;99.90;;;;;;4961364;28;20030;-94
2022/02/11 23:56:15;;;;;;;14.23;8.10;;;3.20;99.90;;;;;;4961144;28;20110;-93
2022/02/11 23:58:41;;;;;;;13.27;7.63;;;3.20;99.90;;;;;;4961270;28;20026;-93
